Rockland M P C, New York
Current Conditions -  °F | °C
As of 4:51 AM on Thursday 29 Jan 2015 (Local Time) from KTEB Reporting Station
Clear Clear  
Wind Chill:   Ceiling: Unl
Heat Index: 16°   Visibility: 10mi
Dew Point:   Wind: 5mph
Humidity: 52%   Direction: 330°NNW
Pressure: 30.31"   Gusts: NA
Location:  41.1138°N, 74.0789°W
Report Text: KTEB 290951Z 33004KT 10SM CLR M09/M17 A3031 RMK AO2 SLP264 T10891172
Loading
Personal Weather Stations






























Interactive Weather Map New forecast layout! Learn more

10-Day Weather Forecast

Advertisements
Track Severe Weather on mobile